Time;durP1;ratioP1;P1;durP2;ratioP2;P2;SDS_P1;SDS_P2;PMS_P1;PMS_P2;Temp;Humidity;BMP_temperature;BMP_pressure;BME280_temperature;BME280_humidity;BME280_pressure;Samples;Min_cycle;Max_cycle;Signal;HPM_P1;HPM_P2
2023/08/14 00:01:35;;;;;;;28.70;26.90;;;21.70;99.90;;;;;;6245248;23;20404;-80
2023/08/14 00:04:02;;;;;;;28.53;26.80;;;21.60;99.90;;;;;;6244375;23;20717;-82
2023/08/14 00:06:29;;;;;;;28.20;26.57;;;21.60;99.90;;;;;;6244051;23;20404;-81
2023/08/14 00:08:55;;;;;;;27.67;26.10;;;21.60;99.90;;;;;;6245270;23;20407;-81
2023/08/14 00:11:22;;;;;;;29.83;27.70;;;21.60;99.90;;;;;;6245829;23;20440;-80
2023/08/14 00:13:50;;;;;;;29.03;27.33;;;21.60;99.90;;;;;;6246769;23;20439;-80
2023/08/14 00:16:18;;;;;;;28.83;27.03;;;21.60;99.90;;;;;;6246841;23;20400;-79
2023/08/14 00:18:45;;;;;;;29.80;27.97;;;21.60;99.90;;;;;;6246601;23;20443;-79
2023/08/14 00:21:12;;;;;;;29.50;27.83;;;21.60;99.90;;;;;;6246879;23;20396;-80
2023/08/14 00:23:39;;;;;;;28.37;26.77;;;21.70;99.90;;;;;;6250282;23;20400;-80
2023/08/14 00:26:06;;;;;;;27.80;26.20;;;21.80;99.90;;;;;;6251211;22;20430;-79
2023/08/14 00:28:34;;;;;;;28.70;27.10;;;21.80;99.90;;;;;;6251931;23;20438;-82
2023/08/14 00:31:00;;;;;;;28.23;26.60;;;21.80;99.90;;;;;;6246575;23;20412;-77
2023/08/14 00:33:29;;;;;;;29.80;28.10;;;21.80;99.90;;;;;;6244347;23;20447;-78
2023/08/14 00:35:56;;;;;;;29.87;28.10;;;21.80;99.90;;;;;;6246356;23;20499;-80
2023/08/14 00:38:23;;;;;;;28.70;27.10;;;21.80;99.90;;;;;;6246121;23;20408;-79
2023/08/14 00:40:52;;;;;;;29.20;27.57;;;21.80;99.90;;;;;;6246277;23;20403;-79
2023/08/14 00:43:20;;;;;;;28.73;26.97;;;21.90;99.90;;;;;;6245482;23;20410;-78
2023/08/14 00:45:46;;;;;;;28.77;27.00;;;21.80;99.90;;;;;;6245667;23;20406;-78
2023/08/14 00:48:14;;;;;;;29.60;27.90;;;21.80;99.90;;;;;;6246363;23;20407;-78
2023/08/14 00:50:43;;;;;;;30.57;28.67;;;21.90;99.90;;;;;;6248370;23;20430;-80
2023/08/14 00:53:11;;;;;;;30.37;28.60;;;21.90;99.90;;;;;;6249188;23;20444;-78
2023/08/14 00:55:38;;;;;;;29.63;27.73;;;21.80;99.90;;;;;;6247780;23;20412;-77
2023/08/14 00:58:06;;;;;;;28.57;26.87;;;21.80;99.90;;;;;;6246151;23;20400;-77
2023/08/14 01:00:34;;;;;;;30.10;28.07;;;21.80;99.90;;;;;;6245534;23;20419;-76
2023/08/14 01:03:02;;;;;;;28.33;26.67;;;21.80;99.90;;;;;;6247005;23;21003;-77
2023/08/14 01:05:29;;;;;;;28.20;26.50;;;21.80;99.90;;;;;;6246716;23;20405;-77
2023/08/14 01:07:57;;;;;;;27.40;25.80;;;21.80;99.90;;;;;;6245064;23;20411;-78
2023/08/14 01:10:27;;;;;;;25.73;24.13;;;21.80;99.90;;;;;;6244939;23;20722;-80
2023/08/14 01:13:06;;;;;;;28.43;26.83;;;21.80;99.90;;;;;;6244068;23;20749;-79
2023/08/14 01:15:39;;;;;;;25.60;24.30;;;21.70;99.90;;;;;;6244566;23;20395;-79
2023/08/14 01:18:06;;;;;;;27.60;26.00;;;21.70;99.90;;;;;;6244332;23;20720;-79
2023/08/14 01:20:36;;;;;;;26.70;25.07;;;21.70;99.90;;;;;;6244239;23;20439;-80
2023/08/14 01:23:11;;;;;;;26.13;24.57;;;21.80;99.90;;;;;;6244159;23;20402;-78
2023/08/14 01:25:41;;;;;;;26.80;25.30;;;21.70;99.90;;;;;;6244188;22;20424;-79
2023/08/14 01:28:10;;;;;;;25.57;24.17;;;21.70;99.90;;;;;;6243694;23;20511;-79
2023/08/14 01:30:37;;;;;;;26.60;24.90;;;21.80;99.90;;;;;;6244289;23;20400;-79
2023/08/14 01:33:04;;;;;;;29.47;27.80;;;21.90;99.90;;;;;;6244080;23;20531;-78
2023/08/14 01:35:36;;;;;;;28.63;26.80;;;22.00;99.90;;;;;;6244832;23;20411;-79
2023/08/14 01:38:14;;;;;;;26.40;24.90;;;22.00;99.90;;;;;;6246116;23;20388;-81
2023/08/14 01:40:49;;;;;;;27.40;25.60;;;22.00;99.90;;;;;;6246348;23;20397;-81
2023/08/14 01:43:21;;;;;;;27.30;25.53;;;22.00;99.90;;;;;;6246005;23;20384;-82
2023/08/14 01:45:48;;;;;;;26.63;25.20;;;21.90;99.90;;;;;;6246337;23;20396;-80
2023/08/14 01:48:15;;;;;;;27.20;25.80;;;21.90;99.90;;;;;;6246286;23;20403;-81
2023/08/14 01:50:43;;;;;;;28.80;27.20;;;22.00;99.90;;;;;;6244659;23;20400;-76
2023/08/14 01:53:11;;;;;;;34.93;32.83;;;22.00;99.90;;;;;;6244491;23;20507;-75
2023/08/14 01:55:38;;;;;;;34.73;32.67;;;21.90;99.90;;;;;;6244034;23;20408;-74
2023/08/14 01:58:06;;;;;;;37.20;34.50;;;21.80;99.90;;;;;;6244088;23;20713;-74
2023/08/14 02:00:33;;;;;;;42.00;39.27;;;21.80;99.90;;;;;;6243463;23;20407;-75
2023/08/14 02:03:01;;;;;;;44.83;41.97;;;21.80;99.90;;;;;;6243962;23;20403;-75
2023/08/14 02:05:27;;;;;;;46.60;43.87;;;21.80;99.90;;;;;;6244210;23;20404;-75
2023/08/14 02:07:54;;;;;;;44.03;41.50;;;21.80;99.90;;;;;;6244410;23;20411;-76
2023/08/14 02:10:21;;;;;;;44.27;41.37;;;21.70;99.90;;;;;;6244391;23;20411;-75
2023/08/14 02:12:48;;;;;;;44.40;41.63;;;21.70;99.90;;;;;;6244111;23;20400;-74
2023/08/14 02:15:16;;;;;;;44.90;41.90;;;21.70;99.90;;;;;;6243511;23;20974;-75
2023/08/14 02:17:43;;;;;;;41.23;38.63;;;21.60;99.90;;;;;;6243867;23;20404;-76
2023/08/14 02:20:11;;;;;;;42.90;40.30;;;21.50;99.90;;;;;;6243160;23;20416;-78
2023/08/14 02:22:38;;;;;;;41.40;38.90;;;21.40;99.90;;;;;;6243449;23;20404;-75
2023/08/14 02:25:05;;;;;;;40.27;37.77;;;21.30;99.90;;;;;;6243136;22;20431;-75
2023/08/14 02:27:32;;;;;;;40.77;38.47;;;21.20;99.90;;;;;;6243133;23;20509;-77
2023/08/14 02:29:59;;;;;;;39.10;36.80;;;21.10;99.90;;;;;;6243810;23;20724;-76
2023/08/14 02:32:27;;;;;;;39.07;36.73;;;20.90;99.90;;;;;;6243987;23;20744;-74
2023/08/14 02:34:54;;;;;;;42.43;39.73;;;20.80;99.90;;;;;;6242965;23;20955;-74
2023/08/14 02:37:21;;;;;;;40.33;37.83;;;20.70;99.90;;;;;;6243290;23;20408;-74
2023/08/14 02:39:47;;;;;;;39.23;36.03;;;20.70;99.90;;;;;;6242937;23;20443;-71
2023/08/14 02:42:16;;;;;;;36.83;34.40;;;20.70;99.90;;;;;;6243563;23;20431;-71
2023/08/14 02:44:42;;;;;;;37.47;35.33;;;20.60;99.90;;;;;;6242089;23;20906;-73
2023/08/14 02:47:09;;;;;;;36.93;34.57;;;20.60;99.90;;;;;;6243135;23;20410;-75
2023/08/14 02:49:37;;;;;;;37.03;34.83;;;20.50;99.90;;;;;;6242928;23;20400;-74
2023/08/14 02:52:04;;;;;;;36.73;34.53;;;20.50;99.90;;;;;;6242873;23;20904;-73
2023/08/14 02:54:31;;;;;;;40.60;37.80;;;20.50;99.90;;;;;;6243043;23;20444;-74
2023/08/14 02:56:58;;;;;;;39.83;37.33;;;20.50;99.90;;;;;;6242959;23;20400;-75
2023/08/14 02:59:24;;;;;;;38.63;36.23;;;20.50;99.90;;;;;;6243131;23;20423;-75
2023/08/14 03:01:51;;;;;;;41.40;38.90;;;20.50;99.90;;;;;;6242916;23;20412;-76
2023/08/14 03:04:18;;;;;;;38.57;36.07;;;20.50;99.90;;;;;;6242674;23;20400;-73
2023/08/14 03:06:46;;;;;;;39.10;36.80;;;20.50;99.90;;;;;;6242838;23;20400;-73
2023/08/14 03:09:13;;;;;;;43.00;40.30;;;20.50;99.90;;;;;;6243217;23;20400;-74
2023/08/14 03:11:40;;;;;;;47.00;43.83;;;20.60;99.90;;;;;;6243130;23;20418;-74
2023/08/14 03:14:06;;;;;;;43.23;40.43;;;20.60;99.90;;;;;;6242961;23;20447;-74
2023/08/14 03:16:33;;;;;;;41.67;38.87;;;20.70;99.90;;;;;;6243290;23;20736;-74
2023/08/14 03:19:00;;;;;;;42.80;40.10;;;20.80;99.90;;;;;;6243285;23;20411;-74
2023/08/14 03:21:26;;;;;;;47.77;44.67;;;20.80;99.90;;;;;;6243436;23;20403;-74
2023/08/14 03:23:54;;;;;;;41.80;39.17;;;20.90;99.90;;;;;;6243252;23;20391;-74
2023/08/14 03:26:21;;;;;;;44.23;41.27;;;20.80;99.90;;;;;;6242915;22;20431;-74
2023/08/14 03:28:48;;;;;;;44.90;42.10;;;20.70;99.90;;;;;;6243548;23;20395;-75
2023/08/14 03:31:15;;;;;;;44.17;41.33;;;20.70;99.90;;;;;;6243132;23;20406;-74
2023/08/14 03:33:41;;;;;;;44.80;41.83;;;20.70;99.90;;;;;;6242972;23;20446;-75
2023/08/14 03:36:08;;;;;;;41.37;38.67;;;20.60;99.90;;;;;;6242828;23;20427;-75
2023/08/14 03:38:35;;;;;;;42.40;39.63;;;20.50;99.90;;;;;;6243129;23;20438;-75
2023/08/14 03:41:04;;;;;;;43.10;40.40;;;20.40;99.90;;;;;;6242786;23;20408;-76
2023/08/14 03:43:31;;;;;;;44.67;41.70;;;20.40;99.90;;;;;;6243061;23;20412;-75
2023/08/14 03:45:57;;;;;;;47.80;44.70;;;20.40;99.90;;;;;;6244582;23;20736;-75
2023/08/14 03:48:24;;;;;;;44.07;41.27;;;20.40;99.90;;;;;;6245212;23;20404;-75
2023/08/14 03:50:51;;;;;;;44.93;41.80;;;20.40;99.90;;;;;;6245219;23;20408;-76
2023/08/14 03:53:17;;;;;;;48.03;44.63;;;20.50;99.90;;;;;;6245210;23;20419;-76
2023/08/14 03:55:45;;;;;;;51.03;47.73;;;20.40;99.90;;;;;;6245065;23;20408;-75
2023/08/14 03:58:13;;;;;;;52.23;48.53;;;20.40;99.90;;;;;;6245183;23;20404;-76
2023/08/14 04:00:40;;;;;;;43.83;41.03;;;20.40;99.90;;;;;;6244835;23;20900;-75
2023/08/14 04:03:06;;;;;;;48.07;44.37;;;20.30;99.90;;;;;;6245127;23;20403;-75
2023/08/14 04:05:38;;;;;;;46.13;43.23;;;20.30;99.90;;;;;;6245201;23;20391;-76
2023/08/14 04:08:05;;;;;;;48.33;44.80;;;20.30;99.90;;;;;;6245018;23;20388;-75
2023/08/14 04:10:32;;;;;;;43.03;40.13;;;20.20;99.90;;;;;;6245419;23;20411;-75
2023/08/14 04:12:59;;;;;;;47.13;43.73;;;20.20;99.90;;;;;;6244884;23;20884;-75
2023/08/14 04:15:27;;;;;;;44.93;41.20;;;20.20;99.90;;;;;;6244654;23;20444;-76
2023/08/14 04:17:54;;;;;;;44.50;41.40;;;20.20;99.90;;;;;;6245282;23;20400;-76
2023/08/14 04:20:21;;;;;;;44.13;41.03;;;20.20;99.90;;;;;;6244796;23;20413;-75
2023/08/14 04:22:47;;;;;;;45.37;42.13;;;20.10;99.90;;;;;;6244910;23;20411;-76
2023/08/14 04:25:15;;;;;;;48.73;45.47;;;20.10;99.90;;;;;;6244753;22;20742;-75
2023/08/14 04:27:41;;;;;;;50.77;46.63;;;20.10;99.90;;;;;;6244342;23;20463;-75
2023/08/14 04:30:09;;;;;;;49.77;45.90;;;20.00;99.90;;;;;;6244404;23;20403;-74
2023/08/14 04:32:37;;;;;;;47.27;44.07;;;20.10;99.90;;;;;;6244727;23;20404;-75
2023/08/14 04:35:04;;;;;;;47.90;44.40;;;20.00;99.90;;;;;;6244387;23;20439;-75
2023/08/14 04:37:31;;;;;;;47.03;43.70;;;20.10;99.90;;;;;;6244717;23;20477;-75
2023/08/14 04:39:57;;;;;;;47.07;43.70;;;20.10;99.90;;;;;;6244767;23;20426;-75
2023/08/14 04:42:24;;;;;;;47.77;44.77;;;20.10;99.90;;;;;;6244545;23;20399;-75
2023/08/14 04:44:51;;;;;;;46.70;43.50;;;20.00;99.90;;;;;;6244407;23;20735;-75
2023/08/14 04:47:17;;;;;;;43.03;40.13;;;20.00;99.90;;;;;;6244546;23;20408;-76
2023/08/14 04:49:45;;;;;;;48.17;45.03;;;20.00;99.90;;;;;;6244253;23;20496;-76
2023/08/14 04:52:12;;;;;;;47.13;44.03;;;20.00;99.90;;;;;;6243922;23;20396;-75
2023/08/14 04:54:39;;;;;;;46.97;43.93;;;20.00;99.90;;;;;;6244038;23;20438;-76
2023/08/14 04:57:05;;;;;;;50.23;46.53;;;20.10;99.90;;;;;;6243906;23;20408;-74
2023/08/14 04:59:32;;;;;;;48.17;44.87;;;20.20;99.90;;;;;;6244539;23;20400;-75
2023/08/14 05:01:59;;;;;;;50.30;46.90;;;20.20;99.90;;;;;;6244738;23;20399;-75
2023/08/14 05:04:25;;;;;;;46.73;43.70;;;20.30;99.90;;;;;;6244169;23;20412;-74
2023/08/14 05:06:54;;;;;;;49.63;46.33;;;20.30;99.90;;;;;;6244269;23;20403;-75
2023/08/14 05:09:20;;;;;;;48.57;45.33;;;20.30;99.90;;;;;;6243438;23;20419;-77
2023/08/14 05:11:47;;;;;;;47.47;44.43;;;20.30;99.90;;;;;;6244011;23;20431;-76
2023/08/14 05:14:14;;;;;;;50.67;47.37;;;20.20;99.90;;;;;;6243566;23;20447;-77
2023/08/14 05:16:41;;;;;;;48.03;45.07;;;20.20;99.90;;;;;;6243978;23;20408;-79
2023/08/14 05:19:07;;;;;;;44.20;41.50;;;20.20;99.90;;;;;;6244221;23;20403;-78
2023/08/14 05:21:34;;;;;;;47.10;44.07;;;20.10;99.90;;;;;;6244428;23;20407;-77
2023/08/14 05:24:02;;;;;;;38.63;36.33;;;20.10;99.90;;;;;;6243906;23;20403;-75
2023/08/14 05:26:29;;;;;;;40.80;38.33;;;20.20;99.90;;;;;;6243699;22;20435;-75
2023/08/14 05:28:55;;;;;;;38.90;36.90;;;20.50;99.90;;;;;;6241689;23;20904;-75
2023/08/14 05:31:22;;;;;;;33.03;30.83;;;20.80;99.90;;;;;;6242383;23;20392;-75
2023/08/14 05:33:49;;;;;;;28.70;27.30;;;21.10;99.90;;;;;;6244037;23;20407;-77
2023/08/14 05:36:15;;;;;;;25.07;23.87;;;21.30;99.90;;;;;;6243483;23;20408;-79
2023/08/14 05:38:45;;;;;;;22.97;21.20;;;21.20;99.90;;;;;;6236834;23;20446;-80
2023/08/14 05:41:13;;;;;;;23.40;21.80;;;21.20;99.90;;;;;;6243329;23;20460;-79
2023/08/14 05:43:39;;;;;;;21.87;20.77;;;21.40;99.90;;;;;;6242871;23;20416;-77
2023/08/14 05:46:06;;;;;;;22.10;20.80;;;21.70;99.90;;;;;;6242664;23;20404;-76
2023/08/14 05:48:33;;;;;;;22.67;21.40;;;22.10;99.90;;;;;;6242861;23;20408;-75
2023/08/14 05:51:00;;;;;;;21.07;20.07;;;22.10;99.90;;;;;;6242505;23;20419;-76
2023/08/14 05:53:27;;;;;;;21.00;20.00;;;22.10;99.90;;;;;;6242793;23;20404;-76
2023/08/14 05:55:53;;;;;;;20.80;19.80;;;21.90;99.90;;;;;;6243306;23;20440;-76
2023/08/14 05:58:21;;;;;;;19.90;18.83;;;22.30;99.90;;;;;;6242907;23;20411;-76
2023/08/14 06:00:49;;;;;;;21.07;20.17;;;22.90;99.90;;;;;;6242693;23;20412;-77
2023/08/14 06:03:16;;;;;;;22.63;21.60;;;23.00;99.90;;;;;;6242961;23;20427;-77
2023/08/14 06:05:43;;;;;;;24.97;23.60;;;22.80;99.90;;;;;;6243053;23;20404;-76
2023/08/14 06:08:10;;;;;;;23.83;22.70;;;22.50;99.90;;;;;;6242345;23;20682;-77
2023/08/14 06:10:38;;;;;;;23.57;22.27;;;22.30;99.90;;;;;;6243075;23;20408;-76
2023/08/14 06:13:05;;;;;;;22.70;21.57;;;22.10;99.90;;;;;;6242782;23;20535;-76
2023/08/14 06:15:33;;;;;;;23.03;21.93;;;22.00;99.90;;;;;;6242433;23;20918;-75
2023/08/14 06:18:00;;;;;;;24.63;23.10;;;21.90;99.90;;;;;;6243354;23;20478;-75
2023/08/14 06:20:27;;;;;;;24.70;23.30;;;21.90;99.90;;;;;;6242854;23;20991;-75
2023/08/14 06:22:54;;;;;;;23.63;22.40;;;22.00;99.90;;;;;;6243211;23;20403;-76
2023/08/14 06:25:21;;;;;;;23.60;22.40;;;22.10;99.90;;;;;;6242451;22;20861;-77
2023/08/14 06:27:47;;;;;;;22.27;20.90;;;22.10;99.90;;;;;;6240183;23;20447;-79
2023/08/14 06:30:15;;;;;;;22.20;21.20;;;22.10;99.90;;;;;;6243704;23;20740;-79
2023/08/14 06:32:44;;;;;;;22.43;21.40;;;22.10;99.90;;;;;;6244579;23;20403;-79
2023/08/14 06:35:10;;;;;;;21.67;20.67;;;22.10;99.90;;;;;;6244752;23;20483;-80
2023/08/14 06:37:37;;;;;;;21.60;20.70;;;22.10;99.90;;;;;;6244613;23;20415;-78
2023/08/14 06:40:15;;;;;;;21.60;20.40;;;22.10;99.90;;;;;;5088278;27;20570;-80
2023/08/14 06:42:41;;;;;;;21.00;20.00;;;22.00;99.90;;;;;;5069512;28;20447;-80
2023/08/14 06:45:09;;;;;;;22.70;21.07;;;22.00;99.90;;;;;;5068644;28;20458;-80
2023/08/14 06:47:44;;;;;;;22.67;21.47;;;22.00;99.90;;;;;;5068605;28;20451;-79
2023/08/14 06:50:12;;;;;;;22.80;21.70;;;22.10;99.90;;;;;;5068408;28;20508;-79
2023/08/14 06:52:39;;;;;;;21.20;20.13;;;22.50;99.90;;;;;;5068586;28;20452;-79
2023/08/14 06:55:06;;;;;;;19.57;18.67;;;23.30;99.90;;;;;;5068743;28;20689;-81
2023/08/14 06:57:35;;;;;;;21.27;20.30;;;24.10;99.90;;;;;;5066857;28;20980;-83
2023/08/14 07:00:05;;;;;;;20.63;19.70;;;24.50;99.90;;;;;;5066093;28;20487;-80
2023/08/14 07:02:32;;;;;;;20.87;19.80;;;25.30;99.90;;;;;;5066002;28;20466;-83
2023/08/14 07:04:59;;;;;;;19.20;18.30;;;25.90;99.90;;;;;;5067521;28;20452;-84
2023/08/14 07:07:26;;;;;;;20.43;19.50;;;26.40;99.90;;;;;;5067918;28;20454;-85
2023/08/14 07:09:52;;;;;;;21.17;19.77;;;26.30;99.90;;;;;;5069259;28;20443;-84
2023/08/14 07:12:19;;;;;;;19.73;18.63;;;26.40;99.90;;;;;;5068265;28;20455;-84
2023/08/14 07:14:47;;;;;;;18.67;17.83;;;26.40;99.90;;;;;;5067867;28;20972;-86
2023/08/14 07:17:14;;;;;;;19.60;17.90;;;26.50;99.90;;;;;;5068055;28;20455;-86
2023/08/14 07:19:40;;;;;;;20.37;19.17;;;27.00;99.90;;;;;;5069502;28;20490;-86
2023/08/14 07:22:07;;;;;;;20.53;19.30;;;27.00;99.90;;;;;;5070714;28;20455;-86
2023/08/14 07:24:34;;;;;;;17.90;17.00;;;27.10;99.90;;;;;;5072979;28;20459;-86
2023/08/14 07:27:00;;;;;;;19.70;18.80;;;27.10;99.90;;;;;;5070380;28;20866;-86
2023/08/14 07:29:27;;;;;;;20.63;19.53;;;27.30;99.90;;;;;;5060307;28;20456;-87
2023/08/14 07:31:55;;;;;;;19.20;18.13;;;27.90;99.90;;;;;;5061984;28;20828;-81
2023/08/14 07:34:22;;;;;;;19.27;18.27;;;28.50;99.90;;;;;;5051422;28;20923;-83
2023/08/14 07:36:49;;;;;;;20.37;19.37;;;29.00;99.90;;;;;;5045084;28;20440;-81
2023/08/14 07:39:15;;;;;;;19.20;18.10;;;29.70;99.90;;;;;;5046733;28;20491;-84
2023/08/14 07:41:42;;;;;;;19.13;18.23;;;30.00;99.90;;;;;;5048786;28;20456;-83
2023/08/14 07:44:09;;;;;;;18.47;17.57;;;30.30;99.90;;;;;;5052714;28;20451;-83
2023/08/14 07:46:35;;;;;;;19.30;18.20;;;30.40;99.90;;;;;;5046893;28;20985;-81
2023/08/14 07:49:04;;;;;;;19.13;18.10;;;30.60;99.90;;;;;;5046512;28;20452;-88
2023/08/14 07:51:30;;;;;;;16.80;16.10;;;30.70;99.90;;;;;;5037453;28;20492;-84
2023/08/14 07:53:57;;;;;;;17.87;17.07;;;31.00;99.90;;;;;;5036878;28;20459;-80
2023/08/14 07:56:24;;;;;;;18.90;17.50;;;31.40;99.90;;;;;;5040874;28;20460;-79
2023/08/14 07:58:50;;;;;;;19.47;18.67;;;31.40;99.90;;;;;;5038249;28;20464;-81
2023/08/14 08:01:17;;;;;;;18.50;17.70;;;31.80;99.90;;;;;;5038963;28;20806;-79
2023/08/14 08:03:44;;;;;;;19.27;18.37;;;31.90;99.80;;;;;;5048536;28;20543;-79
2023/08/14 08:06:12;;;;;;;20.13;19.30;;;31.70;99.90;;;;;;5052253;28;20990;-80
2023/08/14 08:08:39;;;;;;;19.67;18.80;;;31.10;99.90;;;;;;5042671;28;20449;-80
2023/08/14 08:11:05;;;;;;;17.30;16.60;;;30.90;99.90;;;;;;5037490;28;20445;-77
2023/08/14 08:13:32;;;;;;;18.73;17.57;;;30.80;99.90;;;;;;5035711;28;20461;-78
2023/08/14 08:16:00;;;;;;;19.20;18.20;;;31.00;99.90;;;;;;5039278;28;20467;-78
2023/08/14 08:18:27;;;;;;;18.20;17.43;;;31.20;99.90;;;;;;5035920;28;20940;-78
2023/08/14 08:20:54;;;;;;;18.03;17.27;;;31.30;99.90;;;;;;5036816;28;20452;-78
2023/08/14 08:23:22;;;;;;;18.17;17.37;;;31.90;99.90;;;;;;5035874;28;20452;-78
2023/08/14 08:25:48;;;;;;;18.07;17.10;;;31.70;99.60;;;;;;5038380;28;20465;-78
2023/08/14 08:28:15;;;;;;;17.63;16.77;;;31.60;98.90;;;;;;5045432;28;20547;-79
2023/08/14 08:30:42;;;;;;;17.67;16.87;;;31.40;99.90;;;;;;5040125;28;20453;-78
2023/08/14 08:33:08;;;;;;;17.63;16.80;;;31.20;99.90;;;;;;5045108;28;20453;-78
2023/08/14 08:35:35;;;;;;;16.80;16.10;;;31.20;99.90;;;;;;5039904;28;20481;-77
2023/08/14 08:38:02;;;;;;;17.50;16.87;;;31.40;99.90;;;;;;5041899;28;20452;-77
2023/08/14 08:40:31;;;;;;;16.67;15.80;;;31.60;99.90;;;;;;5040809;28;21008;-78
2023/08/14 08:43:00;;;;;;;18.00;17.20;;;31.80;99.80;;;;;;5042405;28;20930;-80
2023/08/14 08:45:32;;;;;;;17.87;17.13;;;32.10;99.20;;;;;;5038270;28;20451;-76
2023/08/14 08:48:01;;;;;;;18.47;17.27;;;32.00;99.50;;;;;;5041842;28;20444;-78
2023/08/14 08:50:29;;;;;;;17.10;16.30;;;32.30;98.90;;;;;;5045156;28;20814;-76
2023/08/14 08:52:57;;;;;;;16.53;15.83;;;32.90;98.00;;;;;;5049493;28;20456;-76
2023/08/14 08:55:24;;;;;;;18.57;17.80;;;32.80;97.20;;;;;;5037782;28;20457;-75
2023/08/14 08:57:54;;;;;;;18.37;17.50;;;32.80;97.80;;;;;;5040823;28;20821;-77
2023/08/14 09:00:22;;;;;;;17.40;16.60;;;33.10;96.40;;;;;;5034755;28;20480;-75
2023/08/14 09:02:49;;;;;;;18.43;17.60;;;33.30;96.10;;;;;;5046543;28;20456;-78
2023/08/14 09:05:16;;;;;;;17.87;17.07;;;33.40;96.00;;;;;;5050916;28;20452;-76
2023/08/14 09:07:43;;;;;;;17.97;16.97;;;33.20;96.20;;;;;;5050353;28;20463;-77
2023/08/14 09:10:10;;;;;;;17.47;16.67;;;33.50;96.00;;;;;;5045864;28;20933;-77
2023/08/14 09:12:37;;;;;;;17.83;17.00;;;34.40;94.60;;;;;;5050563;28;20868;-77
2023/08/14 09:15:07;;;;;;;17.67;16.77;;;34.30;94.50;;;;;;5048271;28;20456;-77
2023/08/14 09:17:34;;;;;;;18.43;17.63;;;34.50;94.20;;;;;;5050925;28;20444;-78
2023/08/14 09:20:01;;;;;;;19.10;18.23;;;34.30;93.70;;;;;;5049881;28;20492;-77
2023/08/14 09:22:28;;;;;;;18.20;17.37;;;34.30;94.20;;;;;;5041835;28;20965;-75
2023/08/14 09:24:55;;;;;;;19.40;18.43;;;34.50;93.40;;;;;;5049881;28;20486;-76
2023/08/14 09:27:22;;;;;;;18.73;18.00;;;34.80;92.90;;;;;;5050373;28;20467;-77
2023/08/14 09:29:51;;;;;;;18.70;18.00;;;35.10;92.10;;;;;;5046980;28;20444;-76
2023/08/14 09:32:22;;;;;;;19.13;18.23;;;35.70;91.90;;;;;;5039706;28;20452;-76
2023/08/14 09:34:49;;;;;;;18.33;17.53;;;35.90;91.10;;;;;;5048284;28;20456;-77
2023/08/14 09:37:20;;;;;;;18.60;17.43;;;36.30;88.50;;;;;;5048218;28;20498;-77
2023/08/14 09:39:46;;;;;;;17.70;16.90;;;35.90;88.30;;;;;;5042596;28;20484;-76
2023/08/14 09:42:13;;;;;;;17.67;16.77;;;35.50;90.80;;;;;;5044203;28;20527;-77
2023/08/14 09:44:42;;;;;;;19.20;18.10;;;36.40;88.20;;;;;;5048859;28;20452;-76
2023/08/14 09:47:09;;;;;;;19.57;18.73;;;36.80;85.80;;;;;;5046518;28;20930;-76
2023/08/14 09:49:40;;;;;;;19.30;18.50;;;37.10;84.40;;;;;;5049694;28;20444;-76
2023/08/14 09:52:07;;;;;;;20.03;18.80;;;37.20;84.70;;;;;;5045226;28;20472;-76
2023/08/14 09:54:35;;;;;;;18.20;17.33;;;37.70;82.00;;;;;;5049662;28;20479;-75
2023/08/14 09:57:03;;;;;;;18.90;18.00;;;37.60;80.20;;;;;;5049194;28;20456;-76
2023/08/14 09:59:30;;;;;;;20.90;19.90;;;37.90;79.20;;;;;;5047530;28;20484;-76
2023/08/14 10:01:59;;;;;;;19.20;18.40;;;38.20;79.60;;;;;;5045611;28;20818;-77
2023/08/14 10:04:28;;;;;;;18.90;18.20;;;38.80;76.50;;;;;;5049858;28;20464;-75
2023/08/14 10:06:57;;;;;;;19.40;18.40;;;37.80;77.20;;;;;;5038388;28;20443;-75
2023/08/14 10:09:26;;;;;;;18.37;17.47;;;37.40;80.10;;;;;;5048923;28;20827;-75
2023/08/14 10:11:56;;;;;;;19.00;18.20;;;37.00;80.40;;;;;;5042917;28;20460;-76
2023/08/14 10:14:25;;;;;;;18.97;18.27;;;37.30;80.50;;;;;;5045998;28;20452;-75
2023/08/14 10:16:56;;;;;;;18.27;17.57;;;37.50;79.60;;;;;;5037803;28;20838;-75
2023/08/14 10:19:25;;;;;;;19.97;19.03;;;37.10;81.20;;;;;;5047779;28;20510;-76
2023/08/14 10:21:54;;;;;;;19.10;18.20;;;36.60;82.30;;;;;;5045694;28;20475;-75
2023/08/14 10:24:23;;;;;;;19.53;18.60;;;37.90;80.40;;;;;;5033269;28;20484;-75
2023/08/14 10:26:50;;;;;;;19.40;18.50;;;38.20;79.10;;;;;;5038595;28;20475;-75
2023/08/14 10:29:17;;;;;;;19.40;18.50;;;37.50;79.50;;;;;;5038103;28;20970;-74
2023/08/14 10:31:46;;;;;;;18.87;18.17;;;36.70;83.50;;;;;;5048412;28;20453;-75
2023/08/14 10:34:14;;;;;;;18.90;18.10;;;37.00;83.20;;;;;;5048380;28;20514;-76
2023/08/14 10:36:41;;;;;;;20.13;19.30;;;36.90;81.80;;;;;;5049116;28;20462;-76
2023/08/14 10:39:09;;;;;;;19.27;18.53;;;37.00;82.30;;;;;;5048891;28;20475;-75
2023/08/14 10:41:40;;;;;;;18.97;18.27;;;36.40;83.20;;;;;;5048773;28;20829;-76
2023/08/14 10:44:11;;;;;;;19.90;18.93;;;36.40;84.10;;;;;;5048576;28;20804;-76
2023/08/14 10:46:41;;;;;;;20.50;19.67;;;37.80;81.10;;;;;;5036298;28;20444;-76
2023/08/14 10:49:10;;;;;;;20.97;19.73;;;38.90;77.50;;;;;;5049660;28;20459;-75
2023/08/14 10:51:41;;;;;;;18.30;17.50;;;38.90;75.80;;;;;;5049511;28;20788;-75
2023/08/14 10:54:12;;;;;;;19.53;18.47;;;38.00;77.40;;;;;;5047622;28;20810;-75
2023/08/14 10:56:45;;;;;;;20.10;19.30;;;37.50;79.00;;;;;;5048312;28;20448;-75
2023/08/14 10:59:23;;;;;;;19.33;18.47;;;36.30;81.80;;;;;;5048613;28;20810;-75
2023/08/14 11:01:52;;;;;;;18.73;18.03;;;36.20;83.60;;;;;;5049498;28;20547;-76
2023/08/14 11:04:19;;;;;;;19.23;18.53;;;36.40;84.20;;;;;;5048206;28;20510;-76
2023/08/14 11:07:08;;;;;;;18.90;18.10;;;37.30;81.50;;;;;;5050178;28;20543;-76
2023/08/14 11:09:36;;;;;;;17.03;16.10;;;37.40;80.00;;;;;;5050172;28;20459;-77
2023/08/14 11:12:07;;;;;;;17.30;16.50;;;36.90;82.00;;;;;;5050246;28;20444;-76
2023/08/14 11:14:40;;;;;;;17.60;16.80;;;37.10;81.30;;;;;;5050393;28;20452;-77
2023/08/14 11:17:10;;;;;;;17.03;16.33;;;37.40;79.70;;;;;;5049990;28;20448;-76
2023/08/14 11:19:38;;;;;;;18.60;17.83;;;36.80;81.00;;;;;;5050013;28;20583;-76
2023/08/14 11:22:05;;;;;;;18.50;17.70;;;36.40;82.20;;;;;;5050070;28;20535;-77
2023/08/14 11:24:33;;;;;;;17.90;17.10;;;36.00;83.90;;;;;;5050000;28;20470;-75
2023/08/14 11:27:00;;;;;;;17.63;16.83;;;37.60;80.60;;;;;;5053448;28;21250;-75
2023/08/14 11:29:28;;;;;;;18.53;17.73;;;38.50;78.70;;;;;;5053184;28;20448;-76
2023/08/14 11:31:55;;;;;;;18.50;17.80;;;39.20;76.30;;;;;;5053843;28;20481;-82
2023/08/14 11:34:23;;;;;;;18.37;17.57;;;39.10;74.60;;;;;;5054077;28;20443;-82
2023/08/14 11:36:55;;;;;;;18.20;17.50;;;38.60;75.10;;;;;;5054189;28;20758;-82
2023/08/14 11:39:21;;;;;;;18.73;18.03;;;38.10;76.40;;;;;;5054007;28;20475;-83
2023/08/14 11:41:48;;;;;;;18.93;18.13;;;38.40;75.50;;;;;;5054578;28;20448;-81
2023/08/14 11:44:17;;;;;;;18.93;18.13;;;37.90;76.90;;;;;;5052813;28;20517;-77
2023/08/14 11:46:49;;;;;;;20.27;19.17;;;38.10;78.80;;;;;;5053336;28;21088;-83
2023/08/14 11:49:16;;;;;;;20.70;19.80;;;40.00;73.50;;;;;;5055139;28;20482;-84
2023/08/14 11:51:44;;;;;;;21.10;20.10;;;41.80;68.60;;;;;;5054842;28;20440;-83
2023/08/14 11:54:12;;;;;;;20.43;19.67;;;42.90;64.70;;;;;;5054251;28;20443;-85
2023/08/14 11:56:44;;;;;;;21.20;20.40;;;43.00;63.40;;;;;;5054793;28;20451;-84
2023/08/14 11:59:11;;;;;;;20.10;19.40;;;42.40;62.00;;;;;;5057570;28;20914;-82
2023/08/14 12:01:38;;;;;;;20.87;19.83;;;42.60;61.90;;;;;;5055907;28;20861;-84
2023/08/14 12:04:08;;;;;;;19.47;18.63;;;42.50;60.00;;;;;;5054874;28;20461;-84
2023/08/14 12:06:37;;;;;;;20.40;19.60;;;41.80;60.90;;;;;;5051768;28;20448;-84
2023/08/14 12:09:07;;;;;;;19.10;18.30;;;41.80;62.00;;;;;;5030490;28;20452;-81
2023/08/14 12:11:34;;;;;;;19.30;18.40;;;41.30;62.30;;;;;;5030727;28;20992;-84
2023/08/14 12:14:04;;;;;;;19.10;18.30;;;40.50;64.50;;;;;;5030890;28;20468;-81
2023/08/14 12:16:38;;;;;;;21.90;21.00;;;40.70;64.80;;;;;;5025536;28;20438;-81
2023/08/14 12:19:09;;;;;;;19.90;19.20;;;39.70;65.40;;;;;;5027313;28;20456;-82
2023/08/14 12:21:36;;;;;;;19.43;18.60;;;39.10;67.10;;;;;;5025551;28;20481;-80
2023/08/14 12:24:03;;;;;;;20.87;20.10;;;38.60;67.90;;;;;;5029627;28;20453;-81
2023/08/14 12:26:37;;;;;;;21.87;20.87;;;38.60;70.30;;;;;;5026407;28;20518;-79
2023/08/14 12:29:04;;;;;;;18.97;18.23;;;38.30;70.00;;;;;;5035445;28;20453;-79
2023/08/14 12:31:30;;;;;;;21.40;20.50;;;38.00;70.40;;;;;;5030675;28;20465;-80